Liguria — IRKJ — position and weather

sailwx.info

Track history (hours):
 
Tides and Currents Weather Stations Pressure Air Temp Water Temp Dewpoint Dewpoint Depression Visibility Wind Speed Wind Dir Waves Ship Positions

Liguria

Last reported at 2016-Jun-25 20:32 UTC. Time now 2016-Jun-25 21:33 UTC.
Position N 44°18' E 008°29'.

Length 30 m; draft 4.5 m.

Type: Tug. MMSI: 247228500.

Date/timePositionNaut miles runAvg speedWind from/ knotsBaromVisibWave heightAir tempDewpointWater temp
2016-Jun-25 20:32N 44°18' E 008°29'0 0.0
2016-Jun-25 19:31N 44°18' E 008°29'0 0.0
2016-Jun-25 18:31N 44°18' E 008°29'0 0.0
2016-Jun-25 17:31N 44°18' E 008°29'0 0.0
2016-Jun-25 16:31N 44°18' E 008°29'0 0.0
2016-Jun-25 15:31N 44°18' E 008°29'0 0.0
2016-Jun-25 14:33N 44°18' E 008°29'0 0.0
2016-Jun-25 13:33N 44°18' E 008°29'0 0.0
2016-Jun-25 12:33N 44°18' E 008°29'0 0.0
2016-Jun-25 11:33N 44°18' E 008°29'0 0.0
2016-Jun-25 10:33N 44°18' E 008°29'0 0.0
2016-Jun-25 09:33N 44°18' E 008°29'0 0.0
2016-Jun-25 08:27N 44°18' E 008°29'2 2.4
2016-Jun-25 07:33N 44°17' E 008°27'0 0.2
2016-Jun-25 06:32N 44°17' E 008°28'2 2.4
2016-Jun-25 05:34N 44°18' E 008°30'0 0.4
2016-Jun-25 04:28N 44°18' E 008°29'0 0.0
2016-Jun-25 03:33N 44°18' E 008°29'0 0.0
2016-Jun-25 02:33N 44°18' E 008°29'0 0.0
2016-Jun-25 01:33N 44°18' E 008°29'0 0.0
2016-Jun-25 00:33N 44°18' E 008°29'0 0.0
2016-Jun-24 23:33N 44°18' E 008°29'0 0.0
2016-Jun-24 22:33N 44°18' E 008°29'0 0.0
2016-Jun-24 17:33N 44°18' E 008°29'0 0.0
2016-Jun-24 16:33N 44°18' E 008°29'0 0.0
2016-Jun-24 15:33N 44°18' E 008°29'3 3.2
2016-Jun-24 14:33N 44°16' E 008°27'3 3.0
2016-Jun-24 13:33N 44°18' E 008°30'1 0.5
2016-Jun-24 12:33N 44°18' E 008°29'0 0.0
2016-Jun-24 11:33N 44°18' E 008°29'1 1.0
2016-Jun-24 10:33N 44°18' E 008°29'1 1.5
2016-Jun-24 09:33N 44°17' E 008°27'2 2.4
2016-Jun-24 08:33N 44°18' E 008°29'0 0.0
2016-Jun-24 07:33N 44°18' E 008°29'1 0.3
2016-Jun-24 04:33N 44°19' E 008°30'1 0.9
2016-Jun-24 03:33N 44°18' E 008°29'0 0.0
2016-Jun-23 17:33N 44°18' E 008°29'1 0.7
2016-Jun-23 16:33N 44°19' E 008°30'1 0.7
2016-Jun-23 15:33N 44°18' E 008°29'0 0.0
2016-Jun-23 14:33N 44°18' E 008°29'0 0.0
2016-Jun-23 13:33N 44°18' E 008°29'0 0.0
2016-Jun-23 12:33N 44°18' E 008°29'0 0.0
2016-Jun-23 11:33N 44°18' E 008°29'0 0.0
2016-Jun-23 10:33N 44°18' E 008°29'0 0.0
2016-Jun-23 09:33N 44°18' E 008°29'0 0.0
2016-Jun-23 08:33N 44°18' E 008°29'0 0.0
2016-Jun-23 07:33N 44°18' E 008°29'0 0.0
2016-Jun-23 05:33N 44°18' E 008°29'0 0.0
2016-Jun-23 04:33N 44°18' E 008°29'0 0.0
2016-Jun-23 03:33N 44°18' E 008°29'0 0.0
2016-Jun-21 12:33N 44°18' E 008°29'0 0.0
2016-Jun-21 11:33N 44°18' E 008°29'0 0.0
2016-Jun-21 10:33N 44°18' E 008°29'0 0.0
2016-Jun-21 09:33N 44°18' E 008°29'0 0.0
2016-Jun-21 08:33N 44°18' E 008°29'2 2.1
2016-Jun-21 07:33N 44°17' E 008°28'0 0.3
2016-Jun-21 06:33N 44°17' E 008°28'2 1.1
2016-Jun-21 04:30N 44°18' E 008°29'0 0.0
2016-Jun-20 21:16N 44°18' E 008°29'0 0.0
2016-Jun-20 20:28N 44°18' E 008°29'0 0.0
2016-Jun-20 19:28N 44°18' E 008°29'0 0.0
2016-Jun-20 07:32N 44°18' E 008°29'0 0.0
2016-Jun-20 06:32N 44°18' E 008°29'0 0.0
2016-Jun-20 05:32N 44°18' E 008°29'1 0.9
2016-Jun-20 04:33N 44°19' E 008°31'1 0.9
2016-Jun-20 03:30N 44°18' E 008°29'0 0.0
2016-Jun-20 02:30N 44°18' E 008°29'0 0.0
2016-Jun-20 01:30N 44°18' E 008°29'0 0.0
2016-Jun-20 00:33N 44°18' E 008°29'0 0.0
2016-Jun-19 23:33N 44°18' E 008°29'0 0.0
2016-Jun-19 22:30N 44°18' E 008°29'0 0.0
2016-Jun-19 21:33N 44°18' E 008°29'0 0.0
2016-Jun-19 20:32N 44°18' E 008°29'0 0.0
2016-Jun-19 19:32N 44°18' E 008°29'0 0.0
2016-Jun-19 18:32N 44°18' E 008°29'0 0.0
2016-Jun-19 17:32N 44°18' E 008°29'0 0.0
2016-Jun-19 16:32N 44°18' E 008°29'0 0.0
2016-Jun-19 15:32N 44°18' E 008°29'0 0.0
2016-Jun-19 14:32N 44°18' E 008°29'0 0.0
2016-Jun-19 12:26N 44°18' E 008°29'0 0.0
2016-Jun-19 11:32N 44°18' E 008°29'0 0.0
2016-Jun-19 10:32N 44°18' E 008°29'1 0.7
2016-Jun-19 09:34N 44°19' E 008°30'3 2.5
2016-Jun-19 08:23N 44°17' E 008°28'0 0.5
2016-Jun-19 07:33N 44°16' E 008°27'3 2.5
2016-Jun-19 06:29N 44°18' E 008°29'0 0.0
2016-Jun-19 05:29N 44°18' E 008°29'0 0.0
2016-Jun-19 04:29N 44°18' E 008°29'0 0.0
2016-Jun-18 16:30N 44°18' E 008°29'0 0.0
2016-Jun-18 15:28N 44°18' E 008°29'1 1.2
2016-Jun-18 14:33N 44°18' E 008°29'1 1.1
2016-Jun-18 13:33N 44°17' E 008°28'2 1.6
2016-Jun-18 12:34N 44°15' E 008°28'3 3.2
2016-Jun-18 11:33N 44°18' E 008°29'0 0.0
2016-Jun-18 07:33N 44°18' E 008°29'0 0.0
2016-Jun-18 06:33N 44°18' E 008°29'1 0.6
2016-Jun-18 05:33N 44°19' E 008°30'1 0.6
2016-Jun-18 04:33N 44°18' E 008°29'0 0.0
2016-Jun-18 03:33N 44°18' E 008°29'0 0.0
2016-Jun-18 02:33N 44°18' E 008°29'0 0.0
2016-Jun-18 01:34N 44°18' E 008°29'0 0.0
2016-Jun-18 00:34N 44°18' E 008°29'0 0.0
2016-Jun-17 23:33N 44°18' E 008°29'0 0.0
2016-Jun-17 22:33N 44°18' E 008°29'0 0.0
2016-Jun-17 21:33N 44°18' E 008°29'0 0.0
2016-Jun-17 20:33N 44°18' E 008°29'0 0.0
2016-Jun-17 19:33N 44°18' E 008°29'0 0.0
2016-Jun-17 18:33N 44°18' E 008°29'0 0.0
2016-Jun-17 17:34N 44°18' E 008°29'0 0.0
2016-Jun-17 16:33N 44°18' E 008°29'0 0.0
2016-Jun-17 15:33N 44°18' E 008°29'0 0.0
2016-Jun-17 14:33N 44°18' E 008°29'0 0.0
2016-Jun-17 13:33N 44°18' E 008°29'0 0.0
2016-Jun-17 12:33N 44°18' E 008°29'0 0.0
2016-Jun-17 11:33N 44°18' E 008°29'0 0.0
2016-Jun-17 07:33N 44°18' E 008°29'0 0.0
2016-Jun-17 06:33N 44°18' E 008°29'0 0.0
2016-Jun-17 05:33N 44°18' E 008°29'0 0.0
2016-Jun-17 04:33N 44°18' E 008°29'0 0.0
2016-Jun-17 03:33N 44°18' E 008°29'0 0.0
2016-Jun-17 02:33N 44°18' E 008°29'0 0.0
2016-Jun-17 01:33N 44°18' E 008°29'0 0.0
2016-Jun-17 00:33N 44°18' E 008°29'0 0.0
2016-Jun-16 23:33N 44°19' E 008°29'0 0.0
2016-Jun-16 22:33N 44°18' E 008°29'0 0.0
2016-Jun-16 17:33N 44°18' E 008°29'0 0.0
2016-Jun-16 16:32N 44°18' E 008°29'0 0.0
2016-Jun-16 15:33N 44°18' E 008°29'0 0.0
2016-Jun-16 14:33N 44°18' E 008°29'0 0.0
2016-Jun-16 13:33N 44°18' E 008°29'0 0.0
2016-Jun-16 12:33N 44°18' E 008°29'0 0.0
2016-Jun-16 11:33N 44°18' E 008°29'0 0.0
2016-Jun-16 10:33N 44°18' E 008°29'0 0.3
2016-Jun-16 09:33N 44°19' E 008°30'0 0.3
2016-Jun-16 08:33N 44°19' E 008°30'0 0.1
2016-Jun-16 07:33N 44°19' E 008°30'1 0.6
2016-Jun-16 06:33N 44°18' E 008°29'0 0.0
2016-Jun-16 05:33N 44°18' E 008°29'0 0.0
2016-Jun-16 04:33N 44°18' E 008°29'0 0.0
2016-Jun-16 03:33N 44°18' E 008°29'0 0.0
2016-Jun-16 02:33N 44°18' E 008°29'0 0.0
2016-Jun-16 01:32N 44°18' E 008°29'  
Track history (hours):
 
Tides and Currents Weather Stations Pressure Air Temp Water Temp Dewpoint Dewpoint Depression Visibility Wind Speed Wind Dir Waves Ship Positions

Liguria

Last reported at 2016-Jun-25 20:32 UTC. Time now 2016-Jun-25 21:33 UTC.
Position N 44°18' E 008°29'.

Length 30 m; draft 4.5 m.

Type: Tug. MMSI: 247228500.

Date/timePositionNaut miles runAvg speedWind from/ knotsBaromVisibWave heightAir tempDewpointWater temp
2016-Jun-25 20:32N 44°18' E 008°29'0 0.0
2016-Jun-25 19:31N 44°18' E 008°29'0 0.0
2016-Jun-25 18:31N 44°18' E 008°29'0 0.0
2016-Jun-25 17:31N 44°18' E 008°29'0 0.0
2016-Jun-25 16:31N 44°18' E 008°29'0 0.0
2016-Jun-25 15:31N 44°18' E 008°29'0 0.0
2016-Jun-25 14:33N 44°18' E 008°29'0 0.0
2016-Jun-25 13:33N 44°18' E 008°29'0 0.0
2016-Jun-25 12:33N 44°18' E 008°29'0 0.0
2016-Jun-25 11:33N 44°18' E 008°29'0 0.0
2016-Jun-25 10:33N 44°18' E 008°29'0 0.0
2016-Jun-25 09:33N 44°18' E 008°29'0 0.0
2016-Jun-25 08:27N 44°18' E 008°29'2 2.4
2016-Jun-25 07:33N 44°17' E 008°27'0 0.2
2016-Jun-25 06:32N 44°17' E 008°28'2 2.4
2016-Jun-25 05:34N 44°18' E 008°30'0 0.4
2016-Jun-25 04:28N 44°18' E 008°29'0 0.0
2016-Jun-25 03:33N 44°18' E 008°29'0 0.0
2016-Jun-25 02:33N 44°18' E 008°29'0 0.0
2016-Jun-25 01:33N 44°18' E 008°29'0 0.0
2016-Jun-25 00:33N 44°18' E 008°29'0 0.0
2016-Jun-24 23:33N 44°18' E 008°29'0 0.0
2016-Jun-24 22:33N 44°18' E 008°29'0 0.0
2016-Jun-24 17:33N 44°18' E 008°29'0 0.0
2016-Jun-24 16:33N 44°18' E 008°29'0 0.0
2016-Jun-24 15:33N 44°18' E 008°29'3 3.2
2016-Jun-24 14:33N 44°16' E 008°27'3 3.0
2016-Jun-24 13:33N 44°18' E 008°30'1 0.5
2016-Jun-24 12:33N 44°18' E 008°29'0 0.0
2016-Jun-24 11:33N 44°18' E 008°29'1 1.0
2016-Jun-24 10:33N 44°18' E 008°29'1 1.5
2016-Jun-24 09:33N 44°17' E 008°27'2 2.4
2016-Jun-24 08:33N 44°18' E 008°29'0 0.0
2016-Jun-24 07:33N 44°18' E 008°29'1 0.3
2016-Jun-24 04:33N 44°19' E 008°30'1 0.9
2016-Jun-24 03:33N 44°18' E 008°29'0 0.0
2016-Jun-23 17:33N 44°18' E 008°29'1 0.7
2016-Jun-23 16:33N 44°19' E 008°30'1 0.7
2016-Jun-23 15:33N 44°18' E 008°29'0 0.0
2016-Jun-23 14:33N 44°18' E 008°29'0 0.0
2016-Jun-23 13:33N 44°18' E 008°29'0 0.0
2016-Jun-23 12:33N 44°18' E 008°29'0 0.0
2016-Jun-23 11:33N 44°18' E 008°29'0 0.0
2016-Jun-23 10:33N 44°18' E 008°29'0 0.0
2016-Jun-23 09:33N 44°18' E 008°29'0 0.0
2016-Jun-23 08:33N 44°18' E 008°29'0 0.0
2016-Jun-23 07:33N 44°18' E 008°29'0 0.0
2016-Jun-23 05:33N 44°18' E 008°29'0 0.0
2016-Jun-23 04:33N 44°18' E 008°29'0 0.0
2016-Jun-23 03:33N 44°18' E 008°29'0 0.0
2016-Jun-21 12:33N 44°18' E 008°29'0 0.0
2016-Jun-21 11:33N 44°18' E 008°29'0 0.0
2016-Jun-21 10:33N 44°18' E 008°29'0 0.0
2016-Jun-21 09:33N 44°18' E 008°29'0 0.0
2016-Jun-21 08:33N 44°18' E 008°29'2 2.1
2016-Jun-21 07:33N 44°17' E 008°28'0 0.3
2016-Jun-21 06:33N 44°17' E 008°28'2 1.1
2016-Jun-21 04:30N 44°18' E 008°29'0 0.0
2016-Jun-20 21:16N 44°18' E 008°29'0 0.0
2016-Jun-20 20:28N 44°18' E 008°29'0 0.0
2016-Jun-20 19:28N 44°18' E 008°29'0 0.0
2016-Jun-20 07:32N 44°18' E 008°29'0 0.0
2016-Jun-20 06:32N 44°18' E 008°29'0 0.0
2016-Jun-20 05:32N 44°18' E 008°29'1 0.9
2016-Jun-20 04:33N 44°19' E 008°31'1 0.9
2016-Jun-20 03:30N 44°18' E 008°29'0 0.0
2016-Jun-20 02:30N 44°18' E 008°29'0 0.0
2016-Jun-20 01:30N 44°18' E 008°29'0 0.0
2016-Jun-20 00:33N 44°18' E 008°29'0 0.0
2016-Jun-19 23:33N 44°18' E 008°29'0 0.0
2016-Jun-19 22:30N 44°18' E 008°29'0 0.0
2016-Jun-19 21:33N 44°18' E 008°29'0 0.0
2016-Jun-19 20:32N 44°18' E 008°29'0 0.0
2016-Jun-19 19:32N 44°18' E 008°29'0 0.0
2016-Jun-19 18:32N 44°18' E 008°29'0 0.0
2016-Jun-19 17:32N 44°18' E 008°29'0 0.0
2016-Jun-19 16:32N 44°18' E 008°29'0 0.0
2016-Jun-19 15:32N 44°18' E 008°29'0 0.0
2016-Jun-19 14:32N 44°18' E 008°29'0 0.0
2016-Jun-19 12:26N 44°18' E 008°29'0 0.0
2016-Jun-19 11:32N 44°18' E 008°29'0 0.0
2016-Jun-19 10:32N 44°18' E 008°29'1 0.7
2016-Jun-19 09:34N 44°19' E 008°30'3 2.5
2016-Jun-19 08:23N 44°17' E 008°28'0 0.5
2016-Jun-19 07:33N 44°16' E 008°27'3 2.5
2016-Jun-19 06:29N 44°18' E 008°29'0 0.0
2016-Jun-19 05:29N 44°18' E 008°29'0 0.0
2016-Jun-19 04:29N 44°18' E 008°29'0 0.0
2016-Jun-18 16:30N 44°18' E 008°29'0 0.0
2016-Jun-18 15:28N 44°18' E 008°29'1 1.2
2016-Jun-18 14:33N 44°18' E 008°29'1 1.1
2016-Jun-18 13:33N 44°17' E 008°28'2 1.6
2016-Jun-18 12:34N 44°15' E 008°28'3 3.2
2016-Jun-18 11:33N 44°18' E 008°29'0 0.0
2016-Jun-18 07:33N 44°18' E 008°29'0 0.0
2016-Jun-18 06:33N 44°18' E 008°29'1 0.6
2016-Jun-18 05:33N 44°19' E 008°30'1 0.6
2016-Jun-18 04:33N 44°18' E 008°29'0 0.0
2016-Jun-18 03:33N 44°18' E 008°29'0 0.0
2016-Jun-18 02:33N 44°18' E 008°29'0 0.0
2016-Jun-18 01:34N 44°18' E 008°29'0 0.0
2016-Jun-18 00:34N 44°18' E 008°29'0 0.0
2016-Jun-17 23:33N 44°18' E 008°29'0 0.0
2016-Jun-17 22:33N 44°18' E 008°29'0 0.0
2016-Jun-17 21:33N 44°18' E 008°29'0 0.0
2016-Jun-17 20:33N 44°18' E 008°29'0 0.0
2016-Jun-17 19:33N 44°18' E 008°29'0 0.0
2016-Jun-17 18:33N 44°18' E 008°29'0 0.0
2016-Jun-17 17:34N 44°18' E 008°29'0 0.0
2016-Jun-17 16:33N 44°18' E 008°29'0 0.0
2016-Jun-17 15:33N 44°18' E 008°29'0 0.0
2016-Jun-17 14:33N 44°18' E 008°29'0 0.0
2016-Jun-17 13:33N 44°18' E 008°29'0 0.0
2016-Jun-17 12:33N 44°18' E 008°29'0 0.0
2016-Jun-17 11:33N 44°18' E 008°29'0 0.0
2016-Jun-17 07:33N 44°18' E 008°29'0 0.0
2016-Jun-17 06:33N 44°18' E 008°29'0 0.0
2016-Jun-17 05:33N 44°18' E 008°29'0 0.0
2016-Jun-17 04:33N 44°18' E 008°29'0 0.0
2016-Jun-17 03:33N 44°18' E 008°29'0 0.0
2016-Jun-17 02:33N 44°18' E 008°29'0 0.0
2016-Jun-17 01:33N 44°18' E 008°29'0 0.0
2016-Jun-17 00:33N 44°18' E 008°29'0 0.0
2016-Jun-16 23:33N 44°19' E 008°29'0 0.0
2016-Jun-16 22:33N 44°18' E 008°29'0 0.0
2016-Jun-16 17:33N 44°18' E 008°29'0 0.0
2016-Jun-16 16:32N 44°18' E 008°29'0 0.0
2016-Jun-16 15:33N 44°18' E 008°29'0 0.0
2016-Jun-16 14:33N 44°18' E 008°29'0 0.0
2016-Jun-16 13:33N 44°18' E 008°29'0 0.0
2016-Jun-16 12:33N 44°18' E 008°29'0 0.0
2016-Jun-16 11:33N 44°18' E 008°29'0 0.0
2016-Jun-16 10:33N 44°18' E 008°29'0 0.3
2016-Jun-16 09:33N 44°19' E 008°30'0 0.3
2016-Jun-16 08:33N 44°19' E 008°30'0 0.1
2016-Jun-16 07:33N 44°19' E 008°30'1 0.6
2016-Jun-16 06:33N 44°18' E 008°29'0 0.0
2016-Jun-16 05:33N 44°18' E 008°29'0 0.0
2016-Jun-16 04:33N 44°18' E 008°29'0 0.0
2016-Jun-16 03:33N 44°18' E 008°29'0 0.0
2016-Jun-16 02:33N 44°18' E 008°29'0 0.0
2016-Jun-16 01:32N 44°18' E 008°29'  

Dump ship's entire track history